Palmyra, Virginia
Current Conditions -  °F | °C
As of 8:35 AM on Wednesday 22 Oct 2014 (Local Time) from KLKU Reporting Station
Moderate Rain Moderate Rain  
Wind Chill: 52°   Ceiling: 3800
Heat Index: 52°   Visibility: 10mi
Dew Point: 48°   Wind: 8mph
Humidity: 88%   Direction: 320°NW
Pressure: 29.93"   Gusts: NA
Location:  37.86°N, 78.26°W
Report Text: KLKU 221235Z AUTO 32007KT 10SM RA SCT025 BKN038 OVC055 11/09 A2993 RMK AO2 P0002
Loading
Personal Weather Stations






























Interactive Weather Map
Tropical Storm Tracking
New forecast layout! Learn more

10-Day Weather Forecast

Advertisements
Track Severe Weather on mobile